Terminal Aerodrome Forecast
Issued by NWS

Home | Current Version | Previous Version | Text Only | Print | Product List | Glossary On
Versions: 1 2 3 4 5 6 7 8 9 10 11 12 13 14 15 16 17 18 19
000
FTUS43 KDVN 250500
TAFCID
TAF
KCID 250520Z 2506/2606 31018G25KT P6SM -SHSN SCT017 OVC022
     FM250800 30016KT P6SM -SHSN OVC018
     FM251000 29012KT P6SM SCT018 BKN025
     FM251500 28009KT P6SM SCT250=

USA.gov is the U.S. government's official web portal to all federal, state and local government web resources and services.